Aérodrome :
LOGIN :

S'inscrire | Disclaimer

   EN    FR    IT 

 










Légende :    VFR   VFR Marginal   IFR   IFR Intensif   IFR Très Intensif
Visi : 
Plafond : 
>= 8 km
>= 3000ft
5 à 8 km
1000 à 3000 ft
1500m à 5 km
500 à 1000 ft
800 à 1500m
200 à 500 ft
< 800m
< 200 ft
Symboles :   Orages  Brouillard  Fortes neiges  Fortes précipitations  Vent > 20 kt
SIGMETs :   Divers  Orages  Givrage  Turbulence  Onde Orograph.  Cendres Volcan.







- Altitude de l'aérodrome : 325 ft
- Code IATA : BES
- Voir les cartes d'approche


LFRB - Brest

DERNIER METAR :
  • 300300Z AUTO 16010KT 9999 -RA NCD 11/09 Q0998 BECMG 16015G25KT 4000 RA BKN008

METARs EXPIRÉS :
  • 300230Z AUTO 16010KT 9999 FEW016/// BKN066/// OVC088/// 11/08 Q0998 BECMG 16015G25KT 4000 RA BKN008
  • 300200Z AUTO 17011KT 9999 -RA BKN017/// BKN060/// BKN074/// 12/09 Q0999 BECMG 16015G25KT 4000 RA BKN008
  • 300130Z AUTO 17012KT 9999 SCT018/// SCT062/// BKN088/// 12/08 Q0999 BECMG 16015G25KT 4000 RA BKN008
  • 300100Z AUTO 17012KT 9999 BKN021/// OVC090/// 12/09 Q1000 BECMG 16015G25KT 4000 RA BKN008
  • 300030Z AUTO 17012KT 9999 BKN024/// OVC084/// 12/08 Q1000 BECMG 16015G25KT 4000 RA BKN008

TAF TAF LFRB
Valide du 30 à 00h jusqu'au 01 à 06h UTC


292300Z 3000/0106 15012KT 9999 SCT030
BECMG 3000/3002 16015G25KT 4000 RA BKN008
BECMG 3008/3010 28010KT 9999 SCT015 BKN020
TEMPO 3012/0106 SHRA BKN015TCU
ATIS : +33 2 98 32 02 71
Pas de NOTAMs connus pour ce terrain.
1 SIGMET publié pour la FIR Brest (LFRR) :
 
Orages noyés dans la masse
LFRR SIGMET 1 VALID 300300/300500 LFPW
LFRR BREST FIR/UIR EMBD TS OBS WI N4630 W00130 - N4530 W00145 - N4545 W00330 - N4800 W00415 - N4730 W00230 TOP FL280 MOV NE 20KT NC=



MET'MAP, la Météo Aéronautique d'un coup d'oeil ! - Copyright ORBIFLY Décembre 2007 - Disclaimer

ORBIFLY MET'MAP TEAM :

Programmation & Développement : Alexandra Zaïnal
Conception & Développement : Baudouin d'Aumeries
Co-Programmation & Développement : Marc-Olivier Méhu
Soutien technique & logistique : Manuel Goepfert

Contact : metmap@orbifly.com




SOURCES & CREDITS :

   NOAA